sensor_id;sensor_type;location;lat;lon;timestamp;pressure;altitude;pressure_sealevel;temperature;humidity
49841;BME280;35738;49.890;5.930;2023-04-28T00:01:36;95489.31;;;9.04;100.00
49841;BME280;35738;49.890;5.930;2023-04-28T00:04:03;95491.25;;;9.04;100.00
49841;BME280;35738;49.890;5.930;2023-04-28T00:06:30;95500.28;;;9.04;100.00
49841;BME280;35738;49.890;5.930;2023-04-28T00:08:57;95488.97;;;9.06;100.00
49841;BME280;35738;49.890;5.930;2023-04-28T00:11:24;95491.25;;;9.04;100.00
49841;BME280;35738;49.890;5.930;2023-04-28T00:13:50;95499.47;;;9.04;100.00
49841;BME280;35738;49.890;5.930;2023-04-28T00:16:18;95488.03;;;9.02;100.00
49841;BME280;35738;49.890;5.930;2023-04-28T00:18:45;95489.81;;;8.98;100.00
49841;BME280;35738;49.890;5.930;2023-04-28T00:21:11;95484.53;;;8.93;100.00
49841;BME280;35738;49.890;5.930;2023-04-28T00:23:38;95485.16;;;8.89;100.00
49841;BME280;35738;49.890;5.930;2023-04-28T00:26:04;95484.19;;;8.85;100.00
49841;BME280;35738;49.890;5.930;2023-04-28T00:28:31;95475.50;;;8.83;100.00
49841;BME280;35738;49.890;5.930;2023-04-28T00:31:00;95467.13;;;8.80;100.00
49841;BME280;35738;49.890;5.930;2023-04-28T00:33:27;95458.41;;;8.78;100.00
49841;BME280;35738;49.890;5.930;2023-04-28T00:35:59;95460.34;;;8.77;100.00
49841;BME280;35738;49.890;5.930;2023-04-28T00:38:26;95452.44;;;8.76;100.00
49841;BME280;35738;49.890;5.930;2023-04-28T00:40:53;95453.09;;;8.73;100.00
49841;BME280;35738;49.890;5.930;2023-04-28T00:43:19;95453.75;;;8.70;100.00
49841;BME280;35738;49.890;5.930;2023-04-28T00:45:48;95460.84;;;8.71;100.00
49841;BME280;35738;49.890;5.930;2023-04-28T00:48:16;95455.38;;;8.71;100.00
49841;BME280;35738;49.890;5.930;2023-04-28T00:50:44;95450.50;;;8.76;100.00
49841;BME280;35738;49.890;5.930;2023-04-28T00:53:11;95444.69;;;8.78;100.00
49841;BME280;35738;49.890;5.930;2023-04-28T00:55:39;95443.91;;;8.77;100.00
49841;BME280;35738;49.890;5.930;2023-04-28T00:58:06;95445.34;;;8.75;100.00
49841;BME280;35738;49.890;5.930;2023-04-28T01:00:33;95441.66;;;8.71;100.00
49841;BME280;35738;49.890;5.930;2023-04-28T01:03:00;95444.25;;;8.67;100.00
49841;BME280;35738;49.890;5.930;2023-04-28T01:05:28;95441.03;;;8.65;100.00
49841;BME280;35738;49.890;5.930;2023-04-28T01:07:54;95432.97;;;8.69;100.00
49841;BME280;35738;49.890;5.930;2023-04-28T01:10:21;95425.53;;;8.69;100.00
49841;BME280;35738;49.890;5.930;2023-04-28T01:12:48;95438.94;;;8.71;100.00
49841;BME280;35738;49.890;5.930;2023-04-28T01:15:18;95435.72;;;8.69;100.00
49841;BME280;35738;49.890;5.930;2023-04-28T01:17:46;95446.66;;;8.69;100.00
49841;BME280;35738;49.890;5.930;2023-04-28T01:20:14;95446.66;;;8.69;100.00
49841;BME280;35738;49.890;5.930;2023-04-28T01:22:40;95459.56;;;8.68;100.00
49841;BME280;35738;49.890;5.930;2023-04-28T01:25:07;95448.94;;;8.67;100.00
49841;BME280;35738;49.890;5.930;2023-04-28T01:27:34;95459.44;;;8.65;100.00
49841;BME280;35738;49.890;5.930;2023-04-28T01:30:01;95466.84;;;8.64;100.00
49841;BME280;35738;49.890;5.930;2023-04-28T01:32:27;95451.19;;;8.65;100.00
49841;BME280;35738;49.890;5.930;2023-04-28T01:34:54;95437.03;;;8.63;100.00
49841;BME280;35738;49.890;5.930;2023-04-28T01:37:20;95445.25;;;8.63;100.00
49841;BME280;35738;49.890;5.930;2023-04-28T01:39:47;95438.63;;;8.64;100.00
49841;BME280;35738;49.890;5.930;2023-04-28T01:42:13;95438.63;;;8.64;100.00
49841;BME280;35738;49.890;5.930;2023-04-28T01:44:40;95445.72;;;8.65;100.00
49841;BME280;35738;49.890;5.930;2023-04-28T01:47:06;95444.59;;;8.66;100.00
49841;BME280;35738;49.890;5.930;2023-04-28T01:49:33;95435.56;;;8.65;100.00
49841;BME280;35738;49.890;5.930;2023-04-28T01:51:59;95440.72;;;8.67;100.00
49841;BME280;35738;49.890;5.930;2023-04-28T01:54:26;95434.91;;;8.68;100.00
49841;BME280;35738;49.890;5.930;2023-04-28T01:56:53;95429.09;;;8.70;100.00
49841;BME280;35738;49.890;5.930;2023-04-28T01:59:20;95428.09;;;8.74;100.00
49841;BME280;35738;49.890;5.930;2023-04-28T02:01:47;95426.50;;;8.73;100.00
49841;BME280;35738;49.890;5.930;2023-04-28T02:04:14;95424.56;;;8.74;100.00
49841;BME280;35738;49.890;5.930;2023-04-28T02:06:41;95421.00;;;8.73;100.00
49841;BME280;35738;49.890;5.930;2023-04-28T02:09:07;95423.28;;;8.71;100.00
49841;BME280;35738;49.890;5.930;2023-04-28T02:11:34;95405.06;;;8.67;100.00
49841;BME280;35738;49.890;5.930;2023-04-28T02:14:00;95398.00;;;8.66;100.00
49841;BME280;35738;49.890;5.930;2023-04-28T02:16:27;95401.56;;;8.57;100.00
49841;BME280;35738;49.890;5.930;2023-04-28T02:18:53;95394.66;;;8.51;100.00
49841;BME280;35738;49.890;5.930;2023-04-28T02:21:20;95403.53;;;8.48;100.00
49841;BME280;35738;49.890;5.930;2023-04-28T02:23:47;95406.94;;;8.45;100.00
49841;BME280;35738;49.890;5.930;2023-04-28T02:26:13;95403.38;;;8.45;100.00
49841;BME280;35738;49.890;5.930;2023-04-28T02:28:40;95403.72;;;8.43;100.00
49841;BME280;35738;49.890;5.930;2023-04-28T02:31:08;95402.56;;;8.44;100.00
49841;BME280;35738;49.890;5.930;2023-04-28T02:33:35;95409.19;;;8.43;100.00
49841;BME280;35738;49.890;5.930;2023-04-28T02:36:03;95413.53;;;8.44;100.00
49841;BME280;35738;49.890;5.930;2023-04-28T02:38:31;95410.94;;;8.48;100.00
49841;BME280;35738;49.890;5.930;2023-04-28T02:41:04;95409.81;;;8.49;100.00
49841;BME280;35738;49.890;5.930;2023-04-28T02:43:31;95407.41;;;8.47;100.00
49841;BME280;35738;49.890;5.930;2023-04-28T02:45:58;95412.09;;;8.47;100.00
49841;BME280;35738;49.890;5.930;2023-04-28T02:48:25;95417.56;;;8.47;100.00
49841;BME280;35738;49.890;5.930;2023-04-28T02:50:52;95422.72;;;8.48;100.00
49841;BME280;35738;49.890;5.930;2023-04-28T02:53:19;95424.66;;;8.48;100.00
49841;BME280;35738;49.890;5.930;2023-04-28T02:55:46;95410.81;;;8.44;100.00
49841;BME280;35738;49.890;5.930;2023-04-28T02:58:13;95398.22;;;8.43;100.00
49841;BME280;35738;49.890;5.930;2023-04-28T03:00:40;95384.38;;;8.40;100.00
49841;BME280;35738;49.890;5.930;2023-04-28T03:03:06;95382.78;;;8.39;100.00
49841;BME280;35738;49.890;5.930;2023-04-28T03:05:33;95384.22;;;8.36;100.00
49841;BME280;35738;49.890;5.930;2023-04-28T03:07:59;95383.44;;;8.36;100.00
49841;BME280;35738;49.890;5.930;2023-04-28T03:10:26;95382.44;;;8.32;100.00
49841;BME280;35738;49.890;5.930;2023-04-28T03:12:53;95387.91;;;8.32;100.00
49841;BME280;35738;49.890;5.930;2023-04-28T03:15:19;95376.97;;;8.32;100.00
49841;BME280;35738;49.890;5.930;2023-04-28T03:17:46;95362.78;;;8.29;100.00
49841;BME280;35738;49.890;5.930;2023-04-28T03:20:18;95358.91;;;8.31;100.00
49841;BME280;35738;49.890;5.930;2023-04-28T03:22:45;95369.06;;;8.30;100.00
49841;BME280;35738;49.890;5.930;2023-04-28T03:25:11;95374.88;;;8.28;100.00
49841;BME280;35738;49.890;5.930;2023-04-28T03:27:38;95363.44;;;8.26;100.00
49841;BME280;35738;49.890;5.930;2023-04-28T03:30:05;95353.63;;;8.25;100.00
49841;BME280;35738;49.890;5.930;2023-04-28T03:32:32;95363.13;;;8.28;100.00
49841;BME280;35738;49.890;5.930;2023-04-28T03:34:58;95357.31;;;8.29;100.00
49841;BME280;35738;49.890;5.930;2023-04-28T03:37:25;95357.50;;;8.33;100.00
49841;BME280;35738;49.890;5.930;2023-04-28T03:39:52;95358.28;;;8.34;100.00
49841;BME280;35738;49.890;5.930;2023-04-28T03:42:19;95356.19;;;8.39;100.00
49841;BME280;35738;49.890;5.930;2023-04-28T03:44:45;95362.13;;;8.41;100.00
49841;BME280;35738;49.890;5.930;2023-04-28T03:47:12;95358.72;;;8.44;100.00
49841;BME280;35738;49.890;5.930;2023-04-28T03:49:38;95356.47;;;8.46;100.00
49841;BME280;35738;49.890;5.930;2023-04-28T03:52:05;95357.41;;;8.50;100.00
49841;BME280;35738;49.890;5.930;2023-04-28T03:54:32;95355.16;;;8.52;100.00
49841;BME280;35738;49.890;5.930;2023-04-28T03:56:58;95364.31;;;8.56;100.00
49841;BME280;35738;49.890;5.930;2023-04-28T03:59:29;95349.50;;;8.57;100.00
49841;BME280;35738;49.890;5.930;2023-04-28T04:02:21;95354.63;;;8.59;100.00
49841;BME280;35738;49.890;5.930;2023-04-28T04:04:48;95351.56;;;8.60;100.00
49841;BME280;35738;49.890;5.930;2023-04-28T04:07:15;95361.06;;;8.63;100.00
49841;BME280;35738;49.890;5.930;2023-04-28T04:09:42;95361.53;;;8.65;100.00
49841;BME280;35738;49.890;5.930;2023-04-28T04:12:08;95370.56;;;8.66;100.00
49841;BME280;35738;49.890;5.930;2023-04-28T04:14:35;95376.06;;;8.66;100.00
49841;BME280;35738;49.890;5.930;2023-04-28T04:17:01;95386.38;;;8.69;100.00
49841;BME280;35738;49.890;5.930;2023-04-28T04:19:28;95392.97;;;8.68;100.00
49841;BME280;35738;49.890;5.930;2023-04-28T04:21:54;95388.28;;;8.68;100.00
49841;BME280;35738;49.890;5.930;2023-04-28T04:24:21;95388.44;;;8.72;100.00
49841;BME280;35738;49.890;5.930;2023-04-28T04:26:48;95393.59;;;8.73;100.00
49841;BME280;35738;49.890;5.930;2023-04-28T04:29:15;95396.81;;;8.75;100.00
49841;BME280;35738;49.890;5.930;2023-04-28T04:31:41;95390.34;;;8.80;100.00
49841;BME280;35738;49.890;5.930;2023-04-28T04:34:13;95393.22;;;8.83;100.00
49841;BME280;35738;49.890;5.930;2023-04-28T04:36:40;95394.97;;;8.88;100.00
49841;BME280;35738;49.890;5.930;2023-04-28T04:39:06;95392.56;;;8.86;100.00
49841;BME280;35738;49.890;5.930;2023-04-28T04:41:37;95384.81;;;8.88;100.00
49841;BME280;35738;49.890;5.930;2023-04-28T04:44:04;95381.75;;;8.90;100.00
49841;BME280;35738;49.890;5.930;2023-04-28T04:46:31;95379.50;;;8.92;100.00
49841;BME280;35738;49.890;5.930;2023-04-28T04:48:58;95378.38;;;8.93;100.00
49841;BME280;35738;49.890;5.930;2023-04-28T04:51:24;95378.03;;;8.95;100.00
49841;BME280;35738;49.890;5.930;2023-04-28T04:53:51;95375.44;;;8.98;100.00
49841;BME280;35738;49.890;5.930;2023-04-28T04:56:17;95377.03;;;8.99;100.00
49841;BME280;35738;49.890;5.930;2023-04-28T04:58:44;95377.50;;;9.01;100.00
49841;BME280;35738;49.890;5.930;2023-04-28T05:01:14;95380.06;;;9.06;100.00
49841;BME280;35738;49.890;5.930;2023-04-28T05:03:41;95386.81;;;9.09;100.00
49841;BME280;35738;49.890;5.930;2023-04-28T05:06:07;95378.75;;;9.12;100.00
49841;BME280;35738;49.890;5.930;2023-04-28T05:08:34;95381.94;;;9.14;100.00
49841;BME280;35738;49.890;5.930;2023-04-28T05:11:00;95381.28;;;9.17;100.00
49841;BME280;35738;49.890;5.930;2023-04-28T05:13:27;95385.31;;;9.20;100.00
49841;BME280;35738;49.890;5.930;2023-04-28T05:15:53;95380.28;;;9.22;100.00
49841;BME280;35738;49.890;5.930;2023-04-28T05:18:21;95389.19;;;9.19;100.00
49841;BME280;35738;49.890;5.930;2023-04-28T05:20:47;95385.31;;;9.20;100.00
49841;BME280;35738;49.890;5.930;2023-04-28T05:23:14;95400.09;;;9.28;100.00
49841;BME280;35738;49.890;5.930;2023-04-28T05:25:41;95393.94;;;9.31;100.00
49841;BME280;35738;49.890;5.930;2023-04-28T05:28:11;95387.47;;;9.35;100.00
49841;BME280;35738;49.890;5.930;2023-04-28T05:30:37;95404.47;;;9.29;100.00
49841;BME280;35738;49.890;5.930;2023-04-28T05:33:04;95393.47;;;9.29;100.00
49841;BME280;35738;49.890;5.930;2023-04-28T05:35:31;95412.06;;;9.23;100.00
49841;BME280;35738;49.890;5.930;2023-04-28T05:37:57;95421.78;;;9.20;100.00
49841;BME280;35738;49.890;5.930;2023-04-28T05:40:24;95411.81;;;9.16;100.00
49841;BME280;35738;49.890;5.930;2023-04-28T05:42:52;95410.38;;;9.10;100.00
49841;BME280;35738;49.890;5.930;2023-04-28T05:45:18;95417.81;;;9.09;100.00
49841;BME280;35738;49.890;5.930;2023-04-28T05:47:45;95413.78;;;9.07;100.00
49841;BME280;35738;49.890;5.930;2023-04-28T05:50:11;95412.31;;;9.09;100.00
49841;BME280;35738;49.890;5.930;2023-04-28T05:52:38;95409.63;;;9.01;100.00
49841;BME280;35738;49.890;5.930;2023-04-28T05:55:05;95408.63;;;9.05;100.00
49841;BME280;35738;49.890;5.930;2023-04-28T05:57:37;95412.69;;;8.99;100.00
49841;BME280;35738;49.890;5.930;2023-04-28T06:00:17;95402.47;;;9.08;100.00
49841;BME280;35738;49.890;5.930;2023-04-28T06:02:44;95405.31;;;9.20;100.00
49841;BME280;35738;49.890;5.930;2023-04-28T06:05:11;95399.44;;;9.31;100.00
49841;BME280;35738;49.890;5.930;2023-04-28T06:07:38;95403.13;;;9.35;100.00
49841;BME280;35738;49.890;5.930;2023-04-28T06:10:05;95397.91;;;9.42;100.00
49841;BME280;35738;49.890;5.930;2023-04-28T06:12:31;95403.66;;;9.49;100.00
49841;BME280;35738;49.890;5.930;2023-04-28T06:14:58;95399.78;;;9.50;100.00
49841;BME280;35738;49.890;5.930;2023-04-28T06:17:24;95406.56;;;9.52;100.00
49841;BME280;35738;49.890;5.930;2023-04-28T06:19:51;95417.00;;;9.59;100.00
49841;BME280;35738;49.890;5.930;2023-04-28T06:22:19;95413.72;;;9.66;100.00
49841;BME280;35738;49.890;5.930;2023-04-28T06:24:46;95412.75;;;9.70;100.00
49841;BME280;35738;49.890;5.930;2023-04-28T06:27:13;95408.66;;;9.76;100.00
49841;BME280;35738;49.890;5.930;2023-04-28T06:29:40;95408.13;;;9.83;100.00
49841;BME280;35738;49.890;5.930;2023-04-28T06:32:06;95404.69;;;9.86;100.00
49841;BME280;35738;49.890;5.930;2023-04-28T06:34:34;95403.56;;;9.87;100.00
49841;BME280;35738;49.890;5.930;2023-04-28T06:37:00;95413.53;;;9.92;100.00
49841;BME280;35738;49.890;5.930;2023-04-28T06:39:27;95417.22;;;9.96;100.00
49841;BME280;35738;49.890;5.930;2023-04-28T06:41:54;95403.94;;;9.98;100.00
49841;BME280;35738;49.890;5.930;2023-04-28T06:44:20;95410.72;;;10.00;100.00
49841;BME280;35738;49.890;5.930;2023-04-28T06:46:47;95408.09;;;10.04;100.00
49841;BME280;35738;49.890;5.930;2023-04-28T06:49:13;95418.16;;;10.00;100.00
49841;BME280;35738;49.890;5.930;2023-04-28T06:51:40;95411.06;;;9.99;100.00
49841;BME280;35738;49.890;5.930;2023-04-28T06:54:07;95406.94;;;10.05;100.00
49841;BME280;35738;49.890;5.930;2023-04-28T06:56:34;95410.84;;;10.04;100.00
49841;BME280;35738;49.890;5.930;2023-04-28T06:59:01;95417.47;;;10.03;100.00
49841;BME280;35738;49.890;5.930;2023-04-28T07:01:28;95414.53;;;10.08;100.00
49841;BME280;35738;49.890;5.930;2023-04-28T07:03:55;95425.31;;;10.13;100.00
49841;BME280;35738;49.890;5.930;2023-04-28T07:06:21;95413.13;;;10.23;100.00
49841;BME280;35738;49.890;5.930;2023-04-28T07:08:48;95420.81;;;10.29;100.00
49841;BME280;35738;49.890;5.930;2023-04-28T07:11:15;95430.56;;;10.39;100.00
49841;BME280;35738;49.890;5.930;2023-04-28T07:13:42;95429.25;;;10.24;100.00
49841;BME280;35738;49.890;5.930;2023-04-28T07:16:09;95427.13;;;10.09;100.00
49841;BME280;35738;49.890;5.930;2023-04-28T07:18:36;95427.31;;;10.04;100.00
49841;BME280;35738;49.890;5.930;2023-04-28T07:21:03;95426.66;;;10.07;100.00
49841;BME280;35738;49.890;5.930;2023-04-28T07:23:31;95431.59;;;10.13;100.00
49841;BME280;35738;49.890;5.930;2023-04-28T07:25:57;95437.03;;;10.22;100.00
49841;BME280;35738;49.890;5.930;2023-04-28T07:28:24;95432.34;;;10.23;100.00
49841;BME280;35738;49.890;5.930;2023-04-28T07:30:51;95439.56;;;10.48;100.00
49841;BME280;35738;49.890;5.930;2023-04-28T07:33:17;95441.78;;;10.67;100.00
49841;BME280;35738;49.890;5.930;2023-04-28T07:35:44;95442.72;;;10.71;100.00
49841;BME280;35738;49.890;5.930;2023-04-28T07:38:11;95441.94;;;10.82;100.00
49841;BME280;35738;49.890;5.930;2023-04-28T07:40:37;95445.03;;;10.93;100.00
49841;BME280;35738;49.890;5.930;2023-04-28T07:43:04;95432.19;;;10.97;100.00
49841;BME280;35738;49.890;5.930;2023-04-28T07:45:31;95442.28;;;11.05;100.00
49841;BME280;35738;49.890;5.930;2023-04-28T07:47:57;95440.22;;;11.02;100.00
49841;BME280;35738;49.890;5.930;2023-04-28T07:50:24;95448.72;;;11.09;100.00
49841;BME280;35738;49.890;5.930;2023-04-28T07:52:51;95445.31;;;11.25;100.00
49841;BME280;35738;49.890;5.930;2023-04-28T07:55:17;95440.84;;;11.20;100.00
49841;BME280;35738;49.890;5.930;2023-04-28T07:57:45;95444.13;;;11.13;100.00
49841;BME280;35738;49.890;5.930;2023-04-28T08:00:12;95442.31;;;11.42;100.00
49841;BME280;35738;49.890;5.930;2023-04-28T08:02:39;95443.91;;;11.55;100.00
49841;BME280;35738;49.890;5.930;2023-04-28T08:05:06;95439.75;;;11.98;100.00
49841;BME280;35738;49.890;5.930;2023-04-28T08:07:35;95429.75;;;12.05;100.00
49841;BME280;35738;49.890;5.930;2023-04-28T08:10:03;95444.06;;;12.11;100.00
49841;BME280;35738;49.890;5.930;2023-04-28T08:12:30;95439.13;;;12.17;100.00
49841;BME280;35738;49.890;5.930;2023-04-28T08:14:57;95439.59;;;12.06;100.00
49841;BME280;35738;49.890;5.930;2023-04-28T08:17:25;95444.78;;;12.08;100.00
49841;BME280;35738;49.890;5.930;2023-04-28T08:19:52;95446.47;;;12.13;100.00
49841;BME280;35738;49.890;5.930;2023-04-28T08:22:19;95449.75;;;12.30;100.00
49841;BME280;35738;49.890;5.930;2023-04-28T08:24:45;95440.81;;;12.21;100.00
49841;BME280;35738;49.890;5.930;2023-04-28T08:27:12;95441.53;;;12.18;100.00
49841;BME280;35738;49.890;5.930;2023-04-28T08:29:38;95438.00;;;12.33;100.00
49841;BME280;35738;49.890;5.930;2023-04-28T08:32:05;95455.19;;;12.15;100.00
49841;BME280;35738;49.890;5.930;2023-04-28T08:34:32;95442.84;;;11.96;100.00
49841;BME280;35738;49.890;5.930;2023-04-28T08:36:59;95448.72;;;11.95;100.00
49841;BME280;35738;49.890;5.930;2023-04-28T08:39:26;95446.38;;;12.09;100.00
49841;BME280;35738;49.890;5.930;2023-04-28T08:41:53;95451.19;;;12.12;100.00
49841;BME280;35738;49.890;5.930;2023-04-28T08:44:19;95458.63;;;12.24;100.00
49841;BME280;35738;49.890;5.930;2023-04-28T08:46:48;95460.13;;;12.21;100.00
49841;BME280;35738;49.890;5.930;2023-04-28T08:49:17;95458.22;;;12.37;100.00
49841;BME280;35738;49.890;5.930;2023-04-28T08:51:49;95459.72;;;12.35;100.00
49841;BME280;35738;49.890;5.930;2023-04-28T08:54:17;95462.28;;;12.56;100.00
49841;BME280;35738;49.890;5.930;2023-04-28T08:56:55;95458.31;;;12.69;100.00
49841;BME280;35738;49.890;5.930;2023-04-28T08:59:22;95458.16;;;12.78;100.00
49841;BME280;35738;49.890;5.930;2023-04-28T09:01:49;95461.38;;;12.95;100.00
49841;BME280;35738;49.890;5.930;2023-04-28T09:04:16;95461.94;;;13.01;100.00
49841;BME280;35738;49.890;5.930;2023-04-28T09:06:44;95460.88;;;13.05;100.00
49841;BME280;35738;49.890;5.930;2023-04-28T09:12:03;95462.09;;;12.92;100.00
49841;BME280;35738;49.890;5.930;2023-04-28T09:14:32;95451.81;;;13.21;100.00
49841;BME280;35738;49.890;5.930;2023-04-28T09:17:00;95462.25;;;13.43;100.00
49841;BME280;35738;49.890;5.930;2023-04-28T09:19:35;95470.69;;;13.34;100.00
49841;BME280;35738;49.890;5.930;2023-04-28T09:22:03;95468.72;;;13.35;100.00
49841;BME280;35738;49.890;5.930;2023-04-28T09:24:49;95466.25;;;13.30;100.00
49841;BME280;35738;49.890;5.930;2023-04-28T09:27:26;95471.69;;;13.26;100.00
49841;BME280;35738;49.890;5.930;2023-04-28T09:29:54;95469.38;;;13.44;100.00
49841;BME280;35738;49.890;5.930;2023-04-28T09:32:22;95458.78;;;13.46;100.00
49841;BME280;35738;49.890;5.930;2023-04-28T09:34:52;95461.50;;;13.62;100.00
49841;BME280;35738;49.890;5.930;2023-04-28T09:37:23;95450.09;;;13.63;100.00
49841;BME280;35738;49.890;5.930;2023-04-28T09:39:52;95457.13;;;13.77;100.00
49841;BME280;35738;49.890;5.930;2023-04-28T09:45:06;95449.34;;;14.17;100.00
49841;BME280;35738;49.890;5.930;2023-04-28T09:47:42;95457.50;;;14.29;100.00
49841;BME280;35738;49.890;5.930;2023-04-28T09:50:11;95434.19;;;14.11;100.00
49841;BME280;35738;49.890;5.930;2023-04-28T09:52:40;95438.94;;;14.30;100.00
49841;BME280;35738;49.890;5.930;2023-04-28T09:55:08;95445.13;;;14.23;100.00
49841;BME280;35738;49.890;5.930;2023-04-28T09:57:38;95440.31;;;14.20;100.00
49841;BME280;35738;49.890;5.930;2023-04-28T10:00:06;95430.19;;;14.09;100.00
49841;BME280;35738;49.890;5.930;2023-04-28T10:02:36;95431.25;;;13.85;100.00
49841;BME280;35738;49.890;5.930;2023-04-28T10:05:07;95419.63;;;13.95;100.00
49841;BME280;35738;49.890;5.930;2023-04-28T10:07:36;95433.06;;;13.96;100.00
49841;BME280;35738;49.890;5.930;2023-04-28T10:10:03;95426.88;;;14.19;100.00
49841;BME280;35738;49.890;5.930;2023-04-28T10:12:31;95416.09;;;14.14;100.00
49841;BME280;35738;49.890;5.930;2023-04-28T10:14:58;95418.06;;;14.13;100.00
49841;BME280;35738;49.890;5.930;2023-04-28T10:17:25;95418.25;;;14.05;100.00
49841;BME280;35738;49.890;5.930;2023-04-28T10:19:56;95414.81;;;13.92;100.00
49841;BME280;35738;49.890;5.930;2023-04-28T10:25:25;95424.50;;;13.66;100.00
49841;BME280;35738;49.890;5.930;2023-04-28T10:27:53;95425.50;;;13.58;100.00
49841;BME280;35738;49.890;5.930;2023-04-28T10:30:22;95416.03;;;13.75;100.00
49841;BME280;35738;49.890;5.930;2023-04-28T10:35:44;95410.38;;;14.07;100.00
49841;BME280;35738;49.890;5.930;2023-04-28T10:38:15;95411.44;;;14.18;100.00
49841;BME280;35738;49.890;5.930;2023-04-28T10:40:45;95404.63;;;13.96;100.00
49841;BME280;35738;49.890;5.930;2023-04-28T10:56:19;95419.47;;;13.53;100.00
49841;BME280;35738;49.890;5.930;2023-04-28T10:58:48;95414.75;;;13.53;100.00
49841;BME280;35738;49.890;5.930;2023-04-28T11:06:41;95428.13;;;13.51;100.00
49841;BME280;35738;49.890;5.930;2023-04-28T11:17:03;95423.47;;;13.08;100.00
49841;BME280;35738;49.890;5.930;2023-04-28T11:19:35;95424.97;;;13.37;100.00
49841;BME280;35738;49.890;5.930;2023-04-28T11:22:14;95411.53;;;13.51;100.00
49841;BME280;35738;49.890;5.930;2023-04-28T11:24:56;95422.47;;;13.63;100.00
49841;BME280;35738;49.890;5.930;2023-04-28T11:27:30;95419.53;;;13.56;100.00
49841;BME280;35738;49.890;5.930;2023-04-28T11:29:56;95411.44;;;13.83;100.00
49841;BME280;35738;49.890;5.930;2023-04-28T11:32:29;95424.91;;;13.84;100.00
49841;BME280;35738;49.890;5.930;2023-04-28T11:34:56;95428.91;;;13.87;100.00
49841;BME280;35738;49.890;5.930;2023-04-28T11:37:22;95419.91;;;14.09;100.00
49841;BME280;35738;49.890;5.930;2023-04-28T11:39:50;95397.03;;;13.74;100.00
49841;BME280;35738;49.890;5.930;2023-04-28T11:42:17;95419.91;;;13.55;100.00
49841;BME280;35738;49.890;5.930;2023-04-28T11:44:50;95425.19;;;13.44;100.00
49841;BME280;35738;49.890;5.930;2023-04-28T11:47:31;95425.34;;;13.35;100.00
49841;BME280;35738;49.890;5.930;2023-04-28T11:49:59;95421.94;;;13.58;100.00
49841;BME280;35738;49.890;5.930;2023-04-28T11:52:27;95411.34;;;13.60;100.00
49841;BME280;35738;49.890;5.930;2023-04-28T11:54:58;95413.38;;;13.63;100.00
49841;BME280;35738;49.890;5.930;2023-04-28T11:57:26;95404.56;;;13.57;100.00
49841;BME280;35738;49.890;5.930;2023-04-28T11:59:53;95411.47;;;13.48;100.00
49841;BME280;35738;49.890;5.930;2023-04-28T12:02:26;95413.06;;;13.33;100.00
49841;BME280;35738;49.890;5.930;2023-04-28T12:04:54;95415.91;;;13.36;100.00
49841;BME280;35738;49.890;5.930;2023-04-28T12:07:21;95417.06;;;13.51;100.00
49841;BME280;35738;49.890;5.930;2023-04-28T12:10:14;95431.81;;;13.75;100.00
49841;BME280;35738;49.890;5.930;2023-04-28T12:12:44;95412.91;;;13.77;100.00
49841;BME280;35738;49.890;5.930;2023-04-28T12:15:19;95398.47;;;13.67;100.00
49841;BME280;35738;49.890;5.930;2023-04-28T12:17:47;95425.25;;;13.63;100.00
49841;BME280;35738;49.890;5.930;2023-04-28T12:20:37;95423.22;;;13.80;100.00
49841;BME280;35738;49.890;5.930;2023-04-28T12:23:05;95419.84;;;14.06;100.00
49841;BME280;35738;49.890;5.930;2023-04-28T12:25:44;95411.00;;;14.16;100.00
49841;BME280;35738;49.890;5.930;2023-04-28T12:28:11;95411.34;;;14.34;100.00
49841;BME280;35738;49.890;5.930;2023-04-28T12:30:37;95398.69;;;14.52;100.00
49841;BME280;35738;49.890;5.930;2023-04-28T12:33:26;95403.66;;;14.85;100.00
49841;BME280;35738;49.890;5.930;2023-04-28T12:35:57;95405.41;;;15.16;100.00
49841;BME280;35738;49.890;5.930;2023-04-28T12:38:25;95372.72;;;14.79;100.00
49841;BME280;35738;49.890;5.930;2023-04-28T12:40:52;95389.28;;;14.99;100.00
49841;BME280;35738;49.890;5.930;2023-04-28T12:43:19;95389.44;;;15.32;100.00
49841;BME280;35738;49.890;5.930;2023-04-28T12:45:52;95388.00;;;15.42;100.00
49841;BME280;35738;49.890;5.930;2023-04-28T12:48:21;95393.28;;;15.50;100.00
49841;BME280;35738;49.890;5.930;2023-04-28T12:50:51;95386.63;;;15.06;100.00
49841;BME280;35738;49.890;5.930;2023-04-28T12:53:18;95381.72;;;15.45;100.00
49841;BME280;35738;49.890;5.930;2023-04-28T12:55:44;95365.00;;;15.61;100.00
49841;BME280;35738;49.890;5.930;2023-04-28T12:58:14;95361.22;;;15.49;100.00
49841;BME280;35738;49.890;5.930;2023-04-28T13:00:41;95348.84;;;15.66;100.00
49841;BME280;35738;49.890;5.930;2023-04-28T13:03:08;95359.25;;;16.06;100.00
49841;BME280;35738;49.890;5.930;2023-04-28T13:05:34;95344.28;;;15.81;100.00
49841;BME280;35738;49.890;5.930;2023-04-28T13:08:04;95327.22;;;15.79;100.00
49841;BME280;35738;49.890;5.930;2023-04-28T13:10:34;95350.25;;;15.83;100.00
49841;BME280;35738;49.890;5.930;2023-04-28T13:13:00;95335.78;;;15.67;100.00
49841;BME280;35738;49.890;5.930;2023-04-28T13:15:27;95336.66;;;15.74;100.00
49841;BME280;35738;49.890;5.930;2023-04-28T13:17:53;95333.31;;;15.92;100.00
49841;BME280;35738;49.890;5.930;2023-04-28T13:20:20;95336.06;;;16.21;100.00
49841;BME280;35738;49.890;5.930;2023-04-28T13:22:47;95334.69;;;16.05;100.00
49841;BME280;35738;49.890;5.930;2023-04-28T13:25:13;95340.34;;;16.15;100.00
49841;BME280;35738;49.890;5.930;2023-04-28T13:27:40;95327.94;;;16.06;100.00
49841;BME280;35738;49.890;5.930;2023-04-28T13:30:09;95343.47;;;16.10;100.00
49841;BME280;35738;49.890;5.930;2023-04-28T13:32:36;95343.66;;;16.28;100.00
49841;BME280;35738;49.890;5.930;2023-04-28T13:35:03;95347.97;;;16.56;100.00
49841;BME280;35738;49.890;5.930;2023-04-28T13:37:30;95331.28;;;16.52;100.00